Airfield :
LOGIN :

Register | Disclaimer

   EN    FR    IT 

 










Legend :    VFR   Marginal VFR   IFR   Intensive IFR   Very Intensive IFR
Visi :
Ceiling :
>= 8 km
>= 3000ft
5 to 8 km
1000 to 3000 ft
1500m to 5 km
500 to 1000 ft
800 to 1500m
200 to 500 ft
< 800m
< 200 ft
Symbols :   Thunderstorms  Fog  Heavy snow  Heavy precipitations  Wind > 20 kt
SIGMETs :     Misc.  Thunderstorms  Icing  Turbulence  Mountain Waves  Volcanic Ashes







- Airport Elevation : 1363 ft


ETIC - Grafenwohr Army Air Field

CURRENT METAR :
  • 142026Z AUTO 09003KT 9999 BKN021 OVC034 03/00 A2937 RMK AO2 SLP962 FZRANO $

EXPIRED METARs :
  • 141956Z AUTO 15005KT 9999 OVC040 03/00 A2940 RMK AO2 SLP973 T00271002 FZRANO $
  • 141856Z AUTO 19005KT 9999 OVC041 03/M01 A2940 RMK AO2 SLP973 T00291006 FZRANO $
  • 141756Z AUTO 18009KT 9999 OVC044 03/M01 A2941 RMK AO2 SLP976 T00301008 10047 20030 57018 FZRANO $

TAF AMD TAF ETIC
Valid from the 14 at 18:00 until the 15 at 20:00 UTC


141802Z 1418/1520 21012KT 9999 BKN040 620408 QNH2940INS
TEMPO 1418/1420 15012KT
BECMG 1419/1420 18012KT 8000 -SHRA BKN020 610309 611206 QNH2936INS
BECMG 1421/1422 22012KT 9000 -SHRA BKN010 610309 611206 QNH2929INS
BECMG 1500/1501 19012G18KT 8000 -SHRA OVC006 610309 611206 QNH2931INS
BECMG 1504/1505 25010G15KT 9000 -SHRA OVC012 610309 611206 QNH2935INS
BECMG 1505/1506 25012KT 9999 NSW SCT010 BKN020 610309 611206 QNH2936INS
BECMG 1515/1516 24012G20KT 9999 BKN010 610309 611206 QNH2941INS
BECMG 1517/1518 24012G18KT 9000 -SHRA BKN008 610309 611206 QNH2943INS TX06/1514Z TN00/1503Z
No reported NOTAMs for that airfield.



MET'MAP, your aeronautical weather chart ! - Copyright ORBIFLY December 2007 - Disclaimer

ORBIFLY MET'MAP TEAM :

Programming & Development : Alexandra Zaïnal
Concept & Development : Baudouin d'Aumeries
Co-Development & Prog : Marc-Olivier Méhu
Technical & hardware support : Manuel Goepfert

Contact : metmap@orbifly.com




SOURCES & CREDITS :

   NOAA